createdAt,value
2023-10-03T00:00:23.821Z,7.82
2023-10-03T00:02:51.178Z,8.25
2023-10-03T00:05:19.219Z,7.85
2023-10-03T00:07:43.713Z,7.97
2023-10-03T00:10:10.731Z,7.43
2023-10-03T00:12:34.541Z,6.75
2023-10-03T00:14:58.297Z,8.02
2023-10-03T00:17:22.329Z,9.93
2023-10-03T00:19:46.222Z,11.35
2023-10-03T00:22:10.426Z,15.75
2023-10-03T00:24:34.221Z,12.38
2023-10-03T00:27:00.512Z,10.60
2023-10-03T00:29:30.737Z,8.80
2023-10-03T00:31:54.611Z,7.90
2023-10-03T00:34:18.628Z,8.00
2023-10-03T00:36:43.185Z,6.82
2023-10-03T00:39:08.013Z,6.35
2023-10-03T00:41:32.109Z,7.20
2023-10-03T00:44:00.436Z,6.55
2023-10-03T00:46:27.362Z,6.90
2023-10-03T00:48:52.789Z,6.80
2023-10-03T00:51:21.675Z,6.45
2023-10-03T00:53:45.862Z,6.07
2023-10-03T00:56:13.239Z,6.32
2023-10-03T00:58:37.914Z,5.35
2023-10-03T01:01:04.641Z,6.47
2023-10-03T01:03:32.371Z,5.93
2023-10-03T01:05:59.220Z,6.22
2023-10-03T01:08:25.143Z,6.57
2023-10-03T01:10:49.330Z,7.35
2023-10-03T01:13:13.797Z,6.97
2023-10-03T01:15:37.977Z,6.78
2023-10-03T01:18:04.405Z,6.72
2023-10-03T01:20:35.500Z,6.38
2023-10-03T01:23:02.274Z,6.25
2023-10-03T01:25:28.929Z,5.93
2023-10-03T01:27:53.301Z,6.45
2023-10-03T01:30:17.308Z,6.90
2023-10-03T01:32:47.117Z,6.13
2023-10-03T01:35:15.231Z,6.70
2023-10-03T01:37:41.100Z,6.53
2023-10-03T01:40:10.144Z,6.68
2023-10-03T01:42:35.385Z,6.65
2023-10-03T01:44:59.258Z,5.80
2023-10-03T01:47:23.081Z,7.57
2023-10-03T01:49:50.021Z,6.45
2023-10-03T01:52:13.841Z,6.28
2023-10-03T01:54:40.165Z,5.70
2023-10-03T01:57:05.430Z,6.47
2023-10-03T01:59:30.786Z,6.25
2023-10-03T02:01:54.581Z,6.70
2023-10-03T02:04:18.648Z,6.75
2023-10-03T02:06:42.836Z,7.47
2023-10-03T02:09:09.781Z,7.05
2023-10-03T02:11:34.475Z,7.03
2023-10-03T02:14:00.803Z,7.15
2023-10-03T02:16:26.025Z,9.20
2023-10-03T02:18:50.910Z,10.80
2023-10-03T02:21:19.193Z,8.32
2023-10-03T02:23:44.265Z,9.93
2023-10-03T02:26:09.397Z,10.02
2023-10-03T02:28:35.321Z,8.82
2023-10-03T02:31:01.705Z,10.05
2023-10-03T02:33:28.063Z,8.98
2023-10-03T02:35:53.123Z,9.73
2023-10-03T02:38:25.673Z,9.70
2023-10-03T02:40:50.355Z,10.00
2023-10-03T02:43:15.427Z,9.77
2023-10-03T02:45:40.153Z,11.25
2023-10-03T02:48:15.816Z,11.50
2023-10-03T02:50:44.372Z,12.75
2023-10-03T02:53:10.176Z,11.98
2023-10-03T02:55:34.430Z,12.27
2023-10-03T02:57:58.278Z,9.60
2023-10-03T03:00:23.524Z,11.07
2023-10-03T03:02:49.095Z,9.55
2023-10-03T03:05:19.306Z,9.68
2023-10-03T03:07:47.839Z,9.15
2023-10-03T03:10:15.854Z,9.27
2023-10-03T03:12:41.908Z,8.20
2023-10-03T03:15:08.436Z,8.90
2023-10-03T03:17:33.947Z,7.70
2023-10-03T03:19:58.052Z,8.07
2023-10-03T03:22:22.941Z,8.32
2023-10-03T03:24:52.916Z,8.65
2023-10-03T03:27:18.007Z,9.38
2023-10-03T03:29:59.234Z,8.10
2023-10-03T03:32:25.412Z,7.80
2023-10-03T03:34:49.288Z,8.20
2023-10-03T03:37:22.865Z,10.23
2023-10-03T03:39:58.302Z,9.45
2023-10-03T03:42:23.282Z,9.52
2023-10-03T03:44:47.074Z,8.18
2023-10-03T03:47:13.155Z,9.00
2023-10-03T03:49:36.971Z,8.23
2023-10-03T03:52:00.800Z,8.45
2023-10-03T03:54:24.703Z,8.82
2023-10-03T03:56:50.281Z,9.15
2023-10-03T03:59:14.412Z,9.68
2023-10-03T04:01:38.861Z,9.35
2023-10-03T04:04:05.718Z,10.13
2023-10-03T04:06:29.578Z,8.32
2023-10-03T04:09:07.885Z,8.05
2023-10-03T04:11:33.642Z,8.52
2023-10-03T04:14:00.825Z,9.05
2023-10-03T04:16:28.647Z,9.05
2023-10-03T04:18:52.438Z,9.55
2023-10-03T04:21:16.641Z,9.50
2023-10-03T04:23:41.733Z,8.40
2023-10-03T04:26:08.069Z,9.18
2023-10-03T04:28:32.581Z,9.02
2023-10-03T04:30:57.885Z,10.27
2023-10-03T04:33:23.012Z,9.55
2023-10-03T04:35:47.055Z,10.40
2023-10-03T04:38:15.847Z,9.88
2023-10-03T04:40:39.834Z,9.52
2023-10-03T04:43:09.907Z,9.45
2023-10-03T04:45:36.645Z,9.48
2023-10-03T04:48:02.041Z,9.82
2023-10-03T04:50:27.196Z,9.23
2023-10-03T04:52:51.535Z,9.65
2023-10-03T04:55:15.496Z,9.27
2023-10-03T04:57:42.681Z,8.98
2023-10-03T05:00:07.857Z,10.15
2023-10-03T05:02:31.798Z,10.95
2023-10-03T05:04:57.155Z,9.77
2023-10-03T05:07:21.207Z,10.18
2023-10-03T05:09:44.938Z,9.23
2023-10-03T05:12:09.025Z,8.95
2023-10-03T05:14:33.855Z,9.73
2023-10-03T05:17:01.462Z,9.40
2023-10-03T05:19:25.404Z,9.80
2023-10-03T05:21:50.637Z,8.63
2023-10-03T05:24:16.802Z,8.27
2023-10-03T05:26:41.099Z,9.38
2023-10-03T05:29:07.275Z,8.02
2023-10-03T05:31:33.337Z,8.70
2023-10-03T05:33:59.080Z,9.02
2023-10-03T05:36:23.695Z,8.30
2023-10-03T05:38:50.552Z,8.27
2023-10-03T05:41:22.734Z,8.57
2023-10-03T05:43:46.930Z,8.55
2023-10-03T05:46:11.935Z,8.43
2023-10-03T05:48:38.170Z,8.38
2023-10-03T05:51:02.037Z,8.85
2023-10-03T05:53:26.611Z,8.25
2023-10-03T05:55:52.415Z,8.57
2023-10-03T05:58:16.367Z,8.52
2023-10-03T06:00:40.870Z,8.30
2023-10-03T06:03:05.532Z,7.85
2023-10-03T06:05:30.676Z,8.68
2023-10-03T06:07:54.623Z,7.57
2023-10-03T06:10:18.632Z,8.45
2023-10-03T06:12:43.859Z,8.73
2023-10-03T06:15:08.895Z,8.00
2023-10-03T06:17:34.219Z,8.63
2023-10-03T06:19:58.110Z,6.90
2023-10-03T06:22:22.008Z,8.30
2023-10-03T06:24:46.653Z,7.07
2023-10-03T06:27:12.188Z,7.88
2023-10-03T06:29:39.829Z,7.55
2023-10-03T06:32:03.706Z,8.13
2023-10-03T06:34:27.485Z,7.30
2023-10-03T06:36:51.354Z,7.32
2023-10-03T06:39:15.408Z,7.57
2023-10-03T06:41:39.665Z,7.55
2023-10-03T06:44:06.018Z,7.22
2023-10-03T06:46:31.290Z,7.50
2023-10-03T06:48:55.537Z,7.85
2023-10-03T06:51:20.372Z,10.55
2023-10-03T06:53:48.472Z,8.88
2023-10-03T06:56:12.514Z,11.50
2023-10-03T06:58:36.313Z,8.45
2023-10-03T07:01:00.475Z,8.50
2023-10-03T07:03:26.105Z,8.23
2023-10-03T07:05:50.077Z,7.60
2023-10-03T07:08:14.113Z,6.55
2023-10-03T07:10:38.065Z,6.50
2023-10-03T07:13:02.764Z,7.22
2023-10-03T07:15:26.785Z,6.95
2023-10-03T07:17:50.718Z,7.38
2023-10-03T07:20:18.211Z,6.70
2023-10-03T07:22:43.913Z,6.32
2023-10-03T07:25:09.891Z,6.53
2023-10-03T07:27:34.234Z,7.70
2023-10-03T07:29:58.330Z,6.60
2023-10-03T07:32:23.331Z,7.00
2023-10-03T07:34:47.604Z,7.03
2023-10-03T07:37:13.205Z,6.18
2023-10-03T07:39:37.031Z,6.68
2023-10-03T07:42:02.667Z,6.95
2023-10-03T07:44:27.407Z,5.97
2023-10-03T07:46:51.196Z,6.57
2023-10-03T07:49:15.031Z,7.03
2023-10-03T07:51:39.180Z,7.13
2023-10-03T07:54:04.756Z,7.38
2023-10-03T07:56:33.102Z,7.35
2023-10-03T07:58:57.596Z,7.40
2023-10-03T08:01:21.500Z,7.78
2023-10-03T08:06:12.005Z,7.32
2023-10-03T08:08:36.007Z,7.88
2023-10-03T08:11:01.403Z,7.82
2023-10-03T08:13:25.261Z,8.00
2023-10-03T08:15:49.063Z,7.88
2023-10-03T08:18:19.272Z,8.07
2023-10-03T08:20:43.711Z,8.50
2023-10-03T08:23:07.566Z,8.15
2023-10-03T08:25:32.864Z,8.25
2023-10-03T08:27:58.158Z,8.60
2023-10-03T08:30:31.331Z,9.85
2023-10-03T08:32:56.375Z,7.88
2023-10-03T08:35:20.436Z,8.18
2023-10-03T08:37:44.812Z,9.98
2023-10-03T08:40:21.538Z,7.75
2023-10-03T08:42:50.417Z,7.82
2023-10-03T08:45:23.570Z,7.00
2023-10-03T08:47:52.442Z,7.32
2023-10-03T08:50:34.959Z,8.57
2023-10-03T08:53:13.907Z,8.52
2023-10-03T08:55:39.334Z,8.73
2023-10-03T08:58:03.120Z,9.38
2023-10-03T09:00:42.031Z,8.88
2023-10-03T09:03:11.415Z,8.40
2023-10-03T09:05:35.459Z,9.35
2023-10-03T09:07:59.933Z,7.40
2023-10-03T09:10:25.285Z,7.45
2023-10-03T09:12:49.185Z,7.30
2023-10-03T09:15:13.220Z,7.55
2023-10-03T09:17:38.690Z,8.70
2023-10-03T09:20:05.716Z,8.43
2023-10-03T09:22:32.342Z,7.53
2023-10-03T09:24:57.461Z,9.00
2023-10-03T09:27:21.283Z,7.63
2023-10-03T09:29:45.104Z,7.45
2023-10-03T09:32:14.626Z,7.82
2023-10-03T09:34:42.083Z,8.23
2023-10-03T09:37:06.202Z,7.03
2023-10-03T09:39:30.120Z,7.35
2023-10-03T09:41:56.720Z,8.02
2023-10-03T09:44:31.005Z,6.35
2023-10-03T09:46:55.440Z,5.78
2023-10-03T09:49:19.235Z,6.45
2023-10-03T09:51:55.045Z,6.50
2023-10-03T09:54:26.044Z,7.65
2023-10-03T09:56:51.711Z,6.03
2023-10-03T09:59:19.241Z,5.88
2023-10-03T10:01:43.223Z,6.25
2023-10-03T10:04:09.855Z,6.13
2023-10-03T10:06:48.608Z,6.55
2023-10-03T10:09:24.839Z,5.57
2023-10-03T10:12:22.961Z,6.68
2023-10-03T10:15:16.282Z,7.25
2023-10-03T10:17:46.784Z,5.55
2023-10-03T10:20:12.041Z,6.85
2023-10-03T10:23:14.459Z,7.22
2023-10-03T10:25:43.559Z,6.28
2023-10-03T10:28:09.086Z,6.50
2023-10-03T10:30:33.138Z,6.45
2023-10-03T10:33:26.012Z,5.65
2023-10-03T10:35:55.959Z,5.93
2023-10-03T10:38:20.141Z,5.97
2023-10-03T10:41:19.149Z,5.80
2023-10-03T10:44:07.240Z,6.15
2023-10-03T10:46:35.712Z,5.75
2023-10-03T10:48:59.589Z,5.55
2023-10-03T10:51:23.607Z,5.70
2023-10-03T10:53:48.627Z,5.32
2023-10-03T10:56:13.882Z,5.60
2023-10-03T10:58:51.940Z,5.18
2023-10-03T11:01:18.081Z,6.07
2023-10-03T11:03:43.279Z,6.03
2023-10-03T11:06:16.640Z,6.07
2023-10-03T11:08:46.221Z,5.55
2023-10-03T11:11:12.884Z,5.97
2023-10-03T11:13:47.067Z,6.95
2023-10-03T11:16:12.381Z,7.28
2023-10-03T11:18:37.289Z,5.60
2023-10-03T11:21:04.439Z,6.57
2023-10-03T11:23:28.553Z,8.07
2023-10-03T11:25:59.153Z,6.70
2023-10-03T11:28:23.195Z,6.60
2023-10-03T11:30:46.968Z,5.63
2023-10-03T11:33:15.117Z,6.13
2023-10-03T11:35:43.045Z,6.00
2023-10-03T11:38:09.111Z,6.95
2023-10-03T11:40:32.974Z,5.88
2023-10-03T11:43:04.111Z,6.53
2023-10-03T11:45:30.717Z,6.00
2023-10-03T11:48:08.053Z,5.80
2023-10-03T11:50:34.415Z,6.25
2023-10-03T11:52:59.077Z,6.15
2023-10-03T11:55:22.890Z,5.97
2023-10-03T11:57:46.741Z,5.57
2023-10-03T12:00:16.200Z,5.95
2023-10-03T12:02:41.178Z,6.32
2023-10-03T12:05:06.074Z,7.00
2023-10-03T12:07:32.024Z,6.88
2023-10-03T12:09:55.842Z,6.47
2023-10-03T12:12:19.710Z,5.82
2023-10-03T12:14:47.096Z,7.10
2023-10-03T12:17:12.840Z,6.10
2023-10-03T12:19:36.828Z,6.13
2023-10-03T12:22:00.822Z,6.32
2023-10-03T12:24:26.076Z,6.32
2023-10-03T12:26:49.929Z,6.20
2023-10-03T12:29:14.126Z,6.20
2023-10-03T12:31:38.007Z,6.63
2023-10-03T12:34:02.864Z,6.38
2023-10-03T12:36:28.914Z,6.28
2023-10-03T12:38:54.047Z,5.30
2023-10-03T12:41:20.242Z,7.25
2023-10-03T12:43:47.540Z,6.93
2023-10-03T12:46:12.616Z,6.47
2023-10-03T12:48:36.840Z,6.18
2023-10-03T12:51:00.976Z,7.40
2023-10-03T12:53:25.348Z,5.68
2023-10-03T12:55:49.090Z,5.55
2023-10-03T12:58:19.952Z,6.05
2023-10-03T13:00:44.043Z,6.13
2023-10-03T13:03:07.945Z,7.63
2023-10-03T13:05:36.470Z,6.55
2023-10-03T13:08:00.427Z,7.30
2023-10-03T13:10:27.122Z,6.68
2023-10-03T13:12:53.062Z,7.07
2023-10-03T13:15:20.233Z,6.57
2023-10-03T13:17:45.257Z,6.78
2023-10-03T13:20:12.743Z,7.15
2023-10-03T13:22:36.621Z,6.75
2023-10-03T13:25:00.459Z,7.10
2023-10-03T13:27:24.479Z,7.30
2023-10-03T13:29:48.371Z,6.85
2023-10-03T13:32:13.590Z,6.57
2023-10-03T13:34:37.568Z,6.65
2023-10-03T13:37:03.705Z,6.72
2023-10-03T13:39:27.893Z,6.82
2023-10-03T13:41:51.711Z,7.50
2023-10-03T13:44:16.751Z,6.32
2023-10-03T13:46:41.295Z,6.65
2023-10-03T13:49:07.972Z,6.47
2023-10-03T13:51:32.588Z,6.50
2023-10-03T13:53:58.616Z,7.32
2023-10-03T13:56:22.612Z,7.78
2023-10-03T13:58:46.649Z,6.60
2023-10-03T14:01:14.717Z,7.18
2023-10-03T14:03:38.740Z,7.43
2023-10-03T14:06:05.413Z,6.40
2023-10-03T14:08:29.381Z,6.82
2023-10-03T14:10:53.330Z,7.00
2023-10-03T14:13:18.026Z,6.88
2023-10-03T14:15:42.152Z,7.10
2023-10-03T14:18:06.833Z,7.18
2023-10-03T14:20:32.661Z,6.90
2023-10-03T14:22:58.578Z,6.88
2023-10-03T14:25:22.752Z,6.90
2023-10-03T14:27:46.702Z,7.45
2023-10-03T14:30:11.538Z,7.75
2023-10-03T14:32:35.565Z,6.70
2023-10-03T14:34:59.620Z,8.05
2023-10-03T14:37:23.584Z,7.45
2023-10-03T14:39:48.792Z,6.90
2023-10-03T14:42:13.218Z,6.50
2023-10-03T14:44:40.637Z,6.75
2023-10-03T14:47:04.582Z,7.40
2023-10-03T14:49:30.424Z,7.53
2023-10-03T14:51:54.732Z,6.82
2023-10-03T14:54:19.980Z,7.32
2023-10-03T14:56:47.036Z,7.20
2023-10-03T14:59:10.913Z,7.57
2023-10-03T15:01:34.878Z,7.63
2023-10-03T15:03:59.941Z,7.80
2023-10-03T15:06:23.962Z,7.55
2023-10-03T15:08:47.919Z,6.78
2023-10-03T15:11:11.983Z,7.47
2023-10-03T15:13:37.819Z,7.13
2023-10-03T15:16:02.318Z,7.00
2023-10-03T15:18:26.297Z,7.95
2023-10-03T15:20:52.114Z,8.13
2023-10-03T15:23:15.975Z,7.07
2023-10-03T15:25:40.335Z,7.10
2023-10-03T15:28:04.694Z,7.75
2023-10-03T15:30:31.925Z,7.05
2023-10-03T15:32:55.959Z,7.13
2023-10-03T15:35:20.783Z,7.13
2023-10-03T15:37:44.612Z,7.82
2023-10-03T15:40:10.252Z,7.57
2023-10-03T15:42:35.871Z,7.75
2023-10-03T15:45:11.875Z,7.65
2023-10-03T15:47:39.159Z,7.40
2023-10-03T15:50:03.044Z,7.78
2023-10-03T15:52:27.018Z,8.50
2023-10-03T15:54:50.834Z,8.40
2023-10-03T15:57:14.734Z,9.60
2023-10-03T15:59:38.575Z,11.05
2023-10-03T16:02:04.779Z,10.45
2023-10-03T16:04:30.190Z,11.98
2023-10-03T16:06:55.265Z,13.18
2023-10-03T16:09:20.372Z,11.48
2023-10-03T16:11:45.863Z,11.60
2023-10-03T16:14:16.387Z,11.80
2023-10-03T16:16:41.823Z,12.70
2023-10-03T16:19:06.090Z,13.00
2023-10-03T16:21:31.335Z,13.95
2023-10-03T16:23:55.273Z,12.27
2023-10-03T16:26:19.061Z,14.57
2023-10-03T16:28:42.891Z,14.00
2023-10-03T16:31:07.183Z,13.50
2023-10-03T16:33:31.176Z,13.52
2023-10-03T16:35:55.093Z,13.20
2023-10-03T16:38:20.388Z,14.57
2023-10-03T16:40:44.233Z,13.77
2023-10-03T16:43:08.687Z,11.35
2023-10-03T16:45:32.669Z,10.25
2023-10-03T16:47:57.762Z,11.02
2023-10-03T16:50:23.285Z,10.05
2023-10-03T16:52:48.396Z,11.05
2023-10-03T16:55:16.119Z,11.60
2023-10-03T16:57:40.753Z,11.68
2023-10-03T17:00:13.675Z,11.80
2023-10-03T17:02:37.930Z,13.02
2023-10-03T17:05:01.788Z,13.65
2023-10-03T17:07:25.633Z,11.18
2023-10-03T17:09:50.199Z,12.00
2023-10-03T17:12:15.532Z,13.15
2023-10-03T17:14:40.098Z,13.15
2023-10-03T17:17:04.908Z,12.23
2023-10-03T17:19:29.049Z,12.65
2023-10-03T17:21:52.962Z,12.07
2023-10-03T17:24:16.875Z,12.25
2023-10-03T17:26:40.894Z,12.15
2023-10-03T17:29:11.948Z,13.18
2023-10-03T17:31:36.344Z,13.82
2023-10-03T17:34:00.280Z,16.08
2023-10-03T17:36:26.623Z,14.10
2023-10-03T17:38:50.971Z,14.70
2023-10-03T17:41:14.790Z,13.50
2023-10-03T17:43:38.579Z,14.02
2023-10-03T17:46:09.117Z,14.25
2023-10-03T17:48:33.168Z,16.05
2023-10-03T17:50:57.144Z,16.33
2023-10-03T17:53:21.017Z,14.68
2023-10-03T17:55:44.970Z,14.80
2023-10-03T17:58:10.053Z,13.95
2023-10-03T18:00:34.797Z,16.27
2023-10-03T18:03:02.686Z,15.18
2023-10-03T18:05:26.891Z,15.20
2023-10-03T18:07:50.821Z,12.45
2023-10-03T18:10:17.329Z,14.32
2023-10-03T18:12:42.794Z,12.45
2023-10-03T18:15:09.137Z,13.35
2023-10-03T18:17:34.289Z,13.48
2023-10-03T18:20:00.001Z,12.50
2023-10-03T18:22:24.333Z,12.45
2023-10-03T18:24:48.189Z,13.68
2023-10-03T18:27:13.143Z,12.90
2023-10-03T18:29:37.121Z,14.68
2023-10-03T18:32:01.805Z,13.75
2023-10-03T18:34:25.754Z,14.13
2023-10-03T18:36:50.956Z,13.88
2023-10-03T18:39:17.075Z,13.52
2023-10-03T18:41:41.074Z,14.50
2023-10-03T18:44:07.493Z,14.13
2023-10-03T18:46:31.467Z,15.13
2023-10-03T18:48:58.688Z,14.13
2023-10-03T18:51:23.067Z,15.18
2023-10-03T18:53:50.990Z,13.25
2023-10-03T18:56:15.329Z,13.60
2023-10-03T18:58:42.066Z,13.80
2023-10-03T19:01:16.263Z,14.43
2023-10-03T19:03:40.243Z,13.85
2023-10-03T19:06:10.289Z,14.75
2023-10-03T19:08:34.286Z,14.82
2023-10-03T19:11:01.871Z,15.55
2023-10-03T19:13:25.750Z,14.05
2023-10-03T19:15:50.369Z,14.18
2023-10-03T19:18:17.093Z,13.98
2023-10-03T19:20:41.013Z,15.38
2023-10-03T19:23:05.151Z,14.25
2023-10-03T19:25:30.786Z,15.27
2023-10-03T19:27:56.761Z,15.70
2023-10-03T19:30:21.296Z,14.90
2023-10-03T19:32:45.241Z,14.50
2023-10-03T19:35:10.820Z,14.85
2023-10-03T19:37:34.794Z,15.63
2023-10-03T19:39:58.721Z,14.40
2023-10-03T19:42:23.258Z,14.45
2023-10-03T19:44:49.651Z,13.93
2023-10-03T19:47:15.036Z,14.45
2023-10-03T19:49:40.235Z,15.05
2023-10-03T19:52:04.491Z,14.40
2023-10-03T19:54:31.791Z,14.80
2023-10-03T19:56:56.781Z,14.25
2023-10-03T19:59:20.971Z,14.20
2023-10-03T20:01:46.752Z,14.20
2023-10-03T20:04:12.120Z,15.27
2023-10-03T20:06:36.033Z,15.73
2023-10-03T20:08:59.785Z,15.60
2023-10-03T20:11:26.550Z,13.50
2023-10-03T20:13:50.396Z,13.98
2023-10-03T20:16:15.115Z,17.02
2023-10-03T20:18:41.972Z,13.90
2023-10-03T20:21:06.515Z,15.57
2023-10-03T20:23:32.824Z,14.07
2023-10-03T20:25:58.422Z,15.05
2023-10-03T20:28:22.509Z,13.93
2023-10-03T20:30:47.745Z,14.45
2023-10-03T20:33:11.695Z,14.20
2023-10-03T20:35:36.883Z,14.40
2023-10-03T20:38:00.742Z,14.18
2023-10-03T20:40:25.451Z,14.00
2023-10-03T20:42:49.682Z,13.00
2023-10-03T20:45:14.506Z,14.27
2023-10-03T20:47:40.213Z,14.65
2023-10-03T20:50:05.114Z,14.57
2023-10-03T20:52:31.070Z,15.98
2023-10-03T20:54:54.799Z,15.63
2023-10-03T20:57:18.643Z,17.48
2023-10-03T20:59:42.390Z,16.23
2023-10-03T21:02:06.822Z,14.25
2023-10-03T21:04:30.640Z,15.38
2023-10-03T21:06:55.593Z,14.07
2023-10-03T21:09:23.068Z,16.13
2023-10-03T21:11:47.742Z,15.57
2023-10-03T21:14:11.664Z,14.95
2023-10-03T21:16:35.949Z,14.85
2023-10-03T21:18:59.790Z,15.95
2023-10-03T21:21:24.007Z,15.93
2023-10-03T21:23:48.100Z,15.93
2023-10-03T21:26:13.306Z,16.13
2023-10-03T21:28:37.168Z,16.08
2023-10-03T21:31:01.113Z,15.25
2023-10-03T21:33:25.008Z,14.95
2023-10-03T21:35:48.975Z,15.15
2023-10-03T21:38:13.807Z,14.43
2023-10-03T21:40:37.705Z,14.68
2023-10-03T21:43:02.951Z,15.90
2023-10-03T21:45:26.849Z,14.05
2023-10-03T21:47:50.912Z,15.35
2023-10-03T21:50:16.478Z,14.63
2023-10-03T21:52:40.317Z,14.25
2023-10-03T21:55:04.540Z,13.43
2023-10-03T21:57:28.422Z,13.77
2023-10-03T21:59:55.609Z,14.63
2023-10-03T22:02:19.761Z,14.60
2023-10-03T22:04:43.794Z,14.27
2023-10-03T22:07:07.542Z,13.73
2023-10-03T22:09:31.928Z,14.05
2023-10-03T22:11:56.436Z,15.25
2023-10-03T22:14:20.513Z,13.85
2023-10-03T22:16:45.881Z,14.90
2023-10-03T22:19:10.253Z,14.98
2023-10-03T22:21:34.093Z,14.25
2023-10-03T22:23:57.963Z,14.45
2023-10-03T22:26:21.947Z,14.65
2023-10-03T22:28:47.976Z,14.43
2023-10-03T22:31:11.814Z,14.82
2023-10-03T22:33:37.776Z,14.95
2023-10-03T22:36:01.621Z,14.45
2023-10-03T22:38:25.365Z,14.65
2023-10-03T22:40:49.192Z,14.18
2023-10-03T22:43:13.403Z,14.98
2023-10-03T22:45:37.697Z,13.88
2023-10-03T22:48:02.500Z,13.88
2023-10-03T22:50:28.124Z,14.52
2023-10-03T22:52:52.085Z,16.00
2023-10-03T22:55:16.079Z,13.73
2023-10-03T22:57:40.474Z,14.60
2023-10-03T23:00:04.546Z,13.80
2023-10-03T23:02:28.579Z,15.07
2023-10-03T23:04:52.835Z,13.48
2023-10-03T23:07:18.119Z,13.32
2023-10-03T23:09:41.950Z,14.05
2023-10-03T23:12:06.393Z,15.43
2023-10-03T23:14:30.191Z,14.10
2023-10-03T23:16:54.101Z,14.75
2023-10-03T23:19:17.934Z,14.55
2023-10-03T23:21:41.727Z,13.57
2023-10-03T23:24:11.141Z,13.48
2023-10-03T23:26:35.013Z,14.55
2023-10-03T23:29:03.729Z,15.07
2023-10-03T23:31:27.690Z,14.18
2023-10-03T23:33:52.472Z,15.18
2023-10-03T23:36:16.784Z,14.73
2023-10-03T23:38:41.236Z,14.55
2023-10-03T23:41:06.600Z,14.30
2023-10-03T23:43:30.424Z,14.88
2023-10-03T23:45:56.216Z,13.18
2023-10-03T23:48:20.184Z,13.18
2023-10-03T23:50:44.071Z,13.35
2023-10-03T23:53:07.952Z,15.18
2023-10-03T23:55:31.970Z,14.73
2023-10-03T23:57:58.711Z,14.45
